sensor_id;sensor_type;location;lat;lon;timestamp;noise_LAeq;noise_LA_min;noise_LA_max;noise_LA01;noise_LA95
79288;Laerm;68737;53.946;27.634;2024-03-29T00:02:17;49.088890;43.081047;71.568390;;
79288;Laerm;68737;53.946;27.634;2024-03-29T00:04:47;53.478371;43.819557;81.334167;;
79288;Laerm;68737;53.946;27.634;2024-03-29T00:07:17;52.896461;42.176605;79.276299;;
79288;Laerm;68737;53.946;27.634;2024-03-29T00:09:47;51.799904;41.167007;80.682632;;
79288;Laerm;68737;53.946;27.634;2024-03-29T00:12:17;51.901375;40.524574;79.572548;;
79288;Laerm;68737;53.946;27.634;2024-03-29T00:14:47;52.464027;39.693710;82.701172;;
79288;Laerm;68737;53.946;27.634;2024-03-29T00:17:17;49.001419;39.855812;73.603210;;
79288;Laerm;68737;53.946;27.634;2024-03-29T00:19:47;49.704544;39.548111;73.136154;;
79288;Laerm;68737;53.946;27.634;2024-03-29T00:22:17;49.736023;38.157806;77.796753;;
79288;Laerm;68737;53.946;27.634;2024-03-29T00:24:47;50.216187;38.405426;78.222092;;
79288;Laerm;68737;53.946;27.634;2024-03-29T00:27:17;46.710793;38.000298;72.331863;;
79288;Laerm;68737;53.946;27.634;2024-03-29T00:29:47;46.912292;37.768799;73.523209;;
79288;Laerm;68737;53.946;27.634;2024-03-29T00:32:17;46.508644;37.456696;78.763367;;
79288;Laerm;68737;53.946;27.634;2024-03-29T00:34:49;44.440872;37.583199;76.051941;;
79288;Laerm;68737;53.946;27.634;2024-03-29T00:37:17;43.735413;37.158562;69.118393;;
79288;Laerm;68737;53.946;27.634;2024-03-29T00:39:47;43.211815;36.892731;71.592232;;
79288;Laerm;68737;53.946;27.634;2024-03-29T00:42:17;43.639313;37.609177;57.484276;;
79288;Laerm;68737;53.946;27.634;2024-03-29T00:44:47;49.569450;40.275497;79.770767;;
79288;Laerm;68737;53.946;27.634;2024-03-29T00:47:18;44.492279;36.685066;71.186951;;
79288;Laerm;68737;53.946;27.634;2024-03-29T00:49:47;42.669487;37.302002;70.815506;;
79288;Laerm;68737;53.946;27.634;2024-03-29T00:52:17;48.974205;37.174606;61.298172;;
79288;Laerm;68737;53.946;27.634;2024-03-29T00:54:47;40.180054;36.856705;61.557453;;
79288;Laerm;68737;53.946;27.634;2024-03-29T00:57:17;45.512901;36.863480;71.790085;;
79288;Laerm;68737;53.946;27.634;2024-03-29T00:59:47;45.554932;36.568375;60.915955;;
79288;Laerm;68737;53.946;27.634;2024-03-29T01:02:17;40.195541;36.719757;65.408508;;
79288;Laerm;68737;53.946;27.634;2024-03-29T01:04:47;45.669609;36.841522;70.480667;;
79288;Laerm;68737;53.946;27.634;2024-03-29T01:07:17;47.756287;37.181671;80.121201;;
79288;Laerm;68737;53.946;27.634;2024-03-29T01:09:46;42.720192;36.740005;58.744034;;
79288;Laerm;68737;53.946;27.634;2024-03-29T01:12:16;39.696045;36.856544;61.023792;;
79288;Laerm;68737;53.946;27.634;2024-03-29T01:14:47;46.610825;37.053513;74.035851;;
79288;Laerm;68737;53.946;27.634;2024-03-29T01:17:16;42.504921;37.306107;62.673100;;
79288;Laerm;68737;53.946;27.634;2024-03-29T01:19:47;41.215469;37.902679;52.955780;;
79288;Laerm;68737;53.946;27.634;2024-03-29T01:22:16;39.956062;36.660187;52.007950;;
79288;Laerm;68737;53.946;27.634;2024-03-29T01:24:47;49.656845;37.403870;72.281921;;
79288;Laerm;68737;53.946;27.634;2024-03-29T01:27:16;40.320404;37.376526;53.330132;;
79288;Laerm;68737;53.946;27.634;2024-03-29T01:29:46;39.782364;36.814682;51.572128;;
79288;Laerm;68737;53.946;27.634;2024-03-29T01:32:16;42.109749;36.453217;56.001411;;
79288;Laerm;68737;53.946;27.634;2024-03-29T01:34:46;39.920601;37.109001;53.570663;;
79288;Laerm;68737;53.946;27.634;2024-03-29T01:37:16;39.751335;36.794144;52.414299;;
79288;Laerm;68737;53.946;27.634;2024-03-29T01:39:47;47.493378;37.812538;59.397747;;
79288;Laerm;68737;53.946;27.634;2024-03-29T01:42:16;43.903152;37.084183;57.516289;;
79288;Laerm;68737;53.946;27.634;2024-03-29T01:44:46;47.988716;36.983421;62.747929;;
79288;Laerm;68737;53.946;27.634;2024-03-29T01:47:17;39.895370;37.037018;59.782158;;
79288;Laerm;68737;53.946;27.634;2024-03-29T01:49:46;46.955032;37.467323;60.975655;;
79288;Laerm;68737;53.946;27.634;2024-03-29T01:52:16;46.400955;37.060219;79.490860;;
79288;Laerm;68737;53.946;27.634;2024-03-29T01:54:46;40.612175;36.729507;57.166611;;
79288;Laerm;68737;53.946;27.634;2024-03-29T01:57:16;42.552628;36.741379;60.289032;;
79288;Laerm;68737;53.946;27.634;2024-03-29T01:59:46;43.953667;37.137512;58.703499;;
79288;Laerm;68737;53.946;27.634;2024-03-29T02:02:16;45.910194;37.647934;62.451656;;
79288;Laerm;68737;53.946;27.634;2024-03-29T02:04:46;46.331917;37.351166;59.820648;;
79288;Laerm;68737;53.946;27.634;2024-03-29T02:07:16;45.776352;39.128647;57.358711;;
79288;Laerm;68737;53.946;27.634;2024-03-29T02:09:46;46.756790;37.974731;62.454151;;
79288;Laerm;68737;53.946;27.634;2024-03-29T02:12:16;51.566208;39.039436;64.717865;;
79288;Laerm;68737;53.946;27.634;2024-03-29T02:14:46;41.519241;37.984070;60.935333;;
79288;Laerm;68737;53.946;27.634;2024-03-29T02:17:16;43.645927;37.767296;60.157867;;
79288;Laerm;68737;53.946;27.634;2024-03-29T02:19:46;46.747643;37.730240;61.171532;;
79288;Laerm;68737;53.946;27.634;2024-03-29T02:22:16;40.884369;37.488586;59.280220;;
79288;Laerm;68737;53.946;27.634;2024-03-29T02:24:46;44.171455;37.344147;57.910965;;
79288;Laerm;68737;53.946;27.634;2024-03-29T02:27:16;46.089188;38.284264;64.185982;;
79288;Laerm;68737;53.946;27.634;2024-03-29T02:29:46;48.936966;38.542923;63.872978;;
79288;Laerm;68737;53.946;27.634;2024-03-29T02:32:16;50.062042;38.514725;63.166050;;
79288;Laerm;68737;53.946;27.634;2024-03-29T02:34:46;43.988083;37.418503;57.333801;;
79288;Laerm;68737;53.946;27.634;2024-03-29T02:37:16;52.663948;39.315979;63.193871;;
79288;Laerm;68737;53.946;27.634;2024-03-29T02:39:46;50.302979;39.281021;63.318687;;
79288;Laerm;68737;53.946;27.634;2024-03-29T02:42:16;42.909218;38.291641;54.447670;;
79288;Laerm;68737;53.946;27.634;2024-03-29T02:44:46;43.431671;38.228806;56.511307;;
79288;Laerm;68737;53.946;27.634;2024-03-29T02:47:16;43.407745;37.964188;57.697952;;
79288;Laerm;68737;53.946;27.634;2024-03-29T02:49:46;44.439705;38.338852;57.433693;;
79288;Laerm;68737;53.946;27.634;2024-03-29T02:52:16;47.944664;38.965576;62.121758;;
79288;Laerm;68737;53.946;27.634;2024-03-29T02:54:46;47.042656;40.163345;58.189201;;
79288;Laerm;68737;53.946;27.634;2024-03-29T02:57:16;52.655022;39.423523;63.879841;;
79288;Laerm;68737;53.946;27.634;2024-03-29T02:59:46;46.681648;38.982101;60.715645;;
79288;Laerm;68737;53.946;27.634;2024-03-29T03:02:16;53.061836;41.744240;63.612217;;
79288;Laerm;68737;53.946;27.634;2024-03-29T03:04:46;49.245537;40.340355;60.296616;;
79288;Laerm;68737;53.946;27.634;2024-03-29T03:07:16;51.336617;40.730545;62.225204;;
79288;Laerm;68737;53.946;27.634;2024-03-29T03:09:46;49.675987;41.720863;61.909126;;
79288;Laerm;68737;53.946;27.634;2024-03-29T03:12:16;49.793770;41.433517;59.924232;;
79288;Laerm;68737;53.946;27.634;2024-03-29T03:14:46;52.243309;41.125603;63.944107;;
79288;Laerm;68737;53.946;27.634;2024-03-29T03:17:16;53.187889;42.559723;69.410889;;
79288;Laerm;68737;53.946;27.634;2024-03-29T03:19:46;51.624954;41.765572;62.190102;;
79288;Laerm;68737;53.946;27.634;2024-03-29T03:22:16;52.610680;43.154274;70.899521;;
79288;Laerm;68737;53.946;27.634;2024-03-29T03:24:46;51.105453;44.747581;59.718056;;
79288;Laerm;68737;53.946;27.634;2024-03-29T03:27:16;50.584618;43.268333;61.568501;;
79288;Laerm;68737;53.946;27.634;2024-03-29T03:29:46;52.917625;42.181305;62.948559;;
79288;Laerm;68737;53.946;27.634;2024-03-29T03:32:16;51.117149;42.583221;67.319939;;
79288;Laerm;68737;53.946;27.634;2024-03-29T03:34:46;53.568054;43.564857;66.305603;;
79288;Laerm;68737;53.946;27.634;2024-03-29T03:37:16;55.950706;41.743118;67.002907;;
79288;Laerm;68737;53.946;27.634;2024-03-29T03:39:46;49.738243;40.008278;69.098076;;
79288;Laerm;68737;53.946;27.634;2024-03-29T03:42:16;51.630333;41.421410;62.129177;;
79288;Laerm;68737;53.946;27.634;2024-03-29T03:44:46;53.720924;42.703766;64.125320;;
79288;Laerm;68737;53.946;27.634;2024-03-29T03:47:16;52.073807;42.698105;60.860352;;
79288;Laerm;68737;53.946;27.634;2024-03-29T03:49:46;53.821625;43.459526;65.477890;;
79288;Laerm;68737;53.946;27.634;2024-03-29T03:52:16;55.996468;43.478676;79.426102;;
79288;Laerm;68737;53.946;27.634;2024-03-29T03:54:46;52.728775;42.101273;64.080902;;
79288;Laerm;68737;53.946;27.634;2024-03-29T03:57:16;51.073685;42.060181;62.579079;;
79288;Laerm;68737;53.946;27.634;2024-03-29T03:59:48;55.337677;44.003456;67.503250;;
79288;Laerm;68737;53.946;27.634;2024-03-29T04:02:16;55.081360;43.912628;65.270500;;
79288;Laerm;68737;53.946;27.634;2024-03-29T04:04:47;51.230301;42.985535;60.826706;;
79288;Laerm;68737;53.946;27.634;2024-03-29T04:07:16;52.892502;44.737732;64.610840;;
79288;Laerm;68737;53.946;27.634;2024-03-29T04:09:50;55.433449;43.692024;70.104912;;
79288;Laerm;68737;53.946;27.634;2024-03-29T04:12:16;54.390076;46.521370;70.299774;;
79288;Laerm;68737;53.946;27.634;2024-03-29T04:14:46;54.143143;46.795860;66.017334;;
79288;Laerm;68737;53.946;27.634;2024-03-29T04:17:16;56.188332;46.380302;65.991203;;
79288;Laerm;68737;53.946;27.634;2024-03-29T04:19:46;55.142723;46.473129;62.912586;;
79288;Laerm;68737;53.946;27.634;2024-03-29T04:22:16;53.308655;44.846153;64.923409;;
79288;Laerm;68737;53.946;27.634;2024-03-29T04:24:46;55.924690;45.243416;64.512665;;
79288;Laerm;68737;53.946;27.634;2024-03-29T04:27:16;57.186829;48.073807;65.347137;;
79288;Laerm;68737;53.946;27.634;2024-03-29T04:29:46;56.476021;47.692207;65.649368;;
79288;Laerm;68737;53.946;27.634;2024-03-29T04:32:16;55.378616;45.025642;65.821640;;
79288;Laerm;68737;53.946;27.634;2024-03-29T04:37:16;56.511795;49.749008;69.664124;;
79288;Laerm;68737;53.946;27.634;2024-03-29T04:39:46;57.932083;46.419006;67.743790;;
79288;Laerm;68737;53.946;27.634;2024-03-29T04:42:18;56.905098;49.565102;64.718002;;
79288;Laerm;68737;53.946;27.634;2024-03-29T04:44:46;56.045723;47.101715;62.894516;;
79288;Laerm;68737;53.946;27.634;2024-03-29T04:47:16;57.299889;47.150208;65.795792;;
79288;Laerm;68737;53.946;27.634;2024-03-29T04:49:46;57.343941;48.934692;75.766479;;
79288;Laerm;68737;53.946;27.634;2024-03-29T04:52:16;55.793274;49.330574;64.687164;;
79288;Laerm;68737;53.946;27.634;2024-03-29T04:54:46;57.253105;48.383774;65.145432;;
79288;Laerm;68737;53.946;27.634;2024-03-29T04:57:16;58.765404;49.846977;73.097382;;
79288;Laerm;68737;53.946;27.634;2024-03-29T04:59:46;56.989464;49.506744;68.855499;;
79288;Laerm;68737;53.946;27.634;2024-03-29T05:02:16;56.580345;48.927429;66.066216;;
79288;Laerm;68737;53.946;27.634;2024-03-29T05:04:46;55.077110;47.998444;66.805069;;
79288;Laerm;68737;53.946;27.634;2024-03-29T05:07:16;56.794907;47.179703;64.568161;;
79288;Laerm;68737;53.946;27.634;2024-03-29T05:09:46;58.418030;48.959938;69.390030;;
79288;Laerm;68737;53.946;27.634;2024-03-29T05:12:16;56.926056;49.196190;68.435638;;
79288;Laerm;68737;53.946;27.634;2024-03-29T05:14:46;56.131721;47.450325;66.121140;;
79288;Laerm;68737;53.946;27.634;2024-03-29T05:17:16;58.932961;49.744034;71.328125;;
79288;Laerm;68737;53.946;27.634;2024-03-29T05:19:46;56.793510;47.513481;66.158211;;
79288;Laerm;68737;53.946;27.634;2024-03-29T05:22:16;57.163834;51.201416;67.368095;;
79288;Laerm;68737;53.946;27.634;2024-03-29T05:24:46;56.206070;49.079781;63.562496;;
79288;Laerm;68737;53.946;27.634;2024-03-29T05:27:16;56.737236;50.093872;64.412415;;
79288;Laerm;68737;53.946;27.634;2024-03-29T05:29:46;56.762283;48.847443;64.755196;;
79288;Laerm;68737;53.946;27.634;2024-03-29T05:32:16;57.542366;50.568611;64.657288;;
79288;Laerm;68737;53.946;27.634;2024-03-29T05:34:46;55.912796;48.907547;64.076233;;
79288;Laerm;68737;53.946;27.634;2024-03-29T05:37:16;58.466896;49.215256;70.476364;;
79288;Laerm;68737;53.946;27.634;2024-03-29T05:39:46;56.756027;50.509529;67.368362;;
79288;Laerm;68737;53.946;27.634;2024-03-29T05:42:16;57.126785;49.755676;66.579285;;
79288;Laerm;68737;53.946;27.634;2024-03-29T05:44:46;58.479279;49.935699;69.057350;;
79288;Laerm;68737;53.946;27.634;2024-03-29T05:47:16;56.980194;46.948967;65.896400;;
79288;Laerm;68737;53.946;27.634;2024-03-29T05:49:46;55.603294;47.282333;67.122910;;
79288;Laerm;68737;53.946;27.634;2024-03-29T05:52:16;57.308250;50.674896;72.173813;;
79288;Laerm;68737;53.946;27.634;2024-03-29T05:54:46;56.648483;48.492065;65.463989;;
79288;Laerm;68737;53.946;27.634;2024-03-29T05:57:16;58.195564;48.224159;72.768784;;
79288;Laerm;68737;53.946;27.634;2024-03-29T05:59:46;58.039261;49.404602;67.217125;;
79288;Laerm;68737;53.946;27.634;2024-03-29T06:02:16;56.819977;48.889130;66.827652;;
79288;Laerm;68737;53.946;27.634;2024-03-29T06:04:46;56.461266;47.738930;64.775490;;
79288;Laerm;68737;53.946;27.634;2024-03-29T06:07:16;57.018562;46.342293;67.087875;;
79288;Laerm;68737;53.946;27.634;2024-03-29T06:09:47;56.593407;46.468147;67.170090;;
79288;Laerm;68737;53.946;27.634;2024-03-29T06:12:16;56.406914;47.716110;66.270950;;
79288;Laerm;68737;53.946;27.634;2024-03-29T06:14:46;56.754906;44.183784;69.854935;;
79288;Laerm;68737;53.946;27.634;2024-03-29T06:17:16;54.788231;46.399925;66.091240;;
79288;Laerm;68737;53.946;27.634;2024-03-29T06:19:46;56.391373;47.546112;65.009811;;
79288;Laerm;68737;53.946;27.634;2024-03-29T06:24:46;57.501266;46.772049;70.105736;;
79288;Laerm;68737;53.946;27.634;2024-03-29T06:27:16;56.029411;46.592384;66.961853;;
79288;Laerm;68737;53.946;27.634;2024-03-29T06:29:46;57.321220;47.690018;71.273300;;
79288;Laerm;68737;53.946;27.634;2024-03-29T06:32:16;55.600555;46.443703;62.376274;;
79288;Laerm;68737;53.946;27.634;2024-03-29T06:34:46;58.361740;47.285896;70.345947;;
79288;Laerm;68737;53.946;27.634;2024-03-29T06:37:16;58.718788;46.106567;74.563950;;
79288;Laerm;68737;53.946;27.634;2024-03-29T06:39:46;55.590317;45.799675;68.673645;;
79288;Laerm;68737;53.946;27.634;2024-03-29T06:42:16;55.402901;46.715202;62.640823;;
79288;Laerm;68737;53.946;27.634;2024-03-29T06:44:46;55.740822;45.789627;71.679733;;
79288;Laerm;68737;53.946;27.634;2024-03-29T06:47:16;56.409088;44.855324;71.752930;;
79288;Laerm;68737;53.946;27.634;2024-03-29T06:49:46;55.360100;45.031975;64.683243;;
79288;Laerm;68737;53.946;27.634;2024-03-29T06:52:16;57.381981;45.016312;72.331512;;
79288;Laerm;68737;53.946;27.634;2024-03-29T06:54:46;56.607056;45.889946;67.000641;;
79288;Laerm;68737;53.946;27.634;2024-03-29T06:57:16;55.907158;47.565750;68.334679;;
79288;Laerm;68737;53.946;27.634;2024-03-29T06:59:46;55.648674;44.817314;67.000237;;
79288;Laerm;68737;53.946;27.634;2024-03-29T07:02:18;57.007576;47.091423;68.741753;;
79288;Laerm;68737;53.946;27.634;2024-03-29T07:04:46;57.636269;49.390053;66.043007;;
79288;Laerm;68737;53.946;27.634;2024-03-29T07:07:16;55.721382;45.638474;64.907379;;
79288;Laerm;68737;53.946;27.634;2024-03-29T07:09:46;56.862267;48.450394;67.648743;;
79288;Laerm;68737;53.946;27.634;2024-03-29T07:12:16;57.037155;46.124550;66.548523;;
79288;Laerm;68737;53.946;27.634;2024-03-29T07:14:46;57.730507;46.646309;67.138466;;
79288;Laerm;68737;53.946;27.634;2024-03-29T07:17:16;55.958160;47.327995;63.091141;;
79288;Laerm;68737;53.946;27.634;2024-03-29T07:19:46;56.003029;46.459045;66.946388;;
79288;Laerm;68737;53.946;27.634;2024-03-29T07:22:17;56.607162;46.996170;68.314003;;
79288;Laerm;68737;53.946;27.634;2024-03-29T07:24:46;56.134911;46.892242;65.984573;;
79288;Laerm;68737;53.946;27.634;2024-03-29T07:27:16;56.744858;47.380920;70.180664;;
79288;Laerm;68737;53.946;27.634;2024-03-29T07:29:46;56.285568;48.601425;66.068039;;
79288;Laerm;68737;53.946;27.634;2024-03-29T07:32:16;56.210770;46.991425;72.178719;;
79288;Laerm;68737;53.946;27.634;2024-03-29T07:34:46;57.426941;44.252983;69.826309;;
79288;Laerm;68737;53.946;27.634;2024-03-29T07:37:16;58.379387;48.322830;72.029465;;
79288;Laerm;68737;53.946;27.634;2024-03-29T07:39:46;56.418274;46.034943;71.535744;;
79288;Laerm;68737;53.946;27.634;2024-03-29T07:42:16;56.928436;45.197296;72.604820;;
79288;Laerm;68737;53.946;27.634;2024-03-29T07:44:46;56.471954;48.048050;71.888680;;
79288;Laerm;68737;53.946;27.634;2024-03-29T07:47:16;55.649399;46.399612;73.703690;;
79288;Laerm;68737;53.946;27.634;2024-03-29T07:49:46;56.149384;46.160095;71.153534;;
79288;Laerm;68737;53.946;27.634;2024-03-29T07:52:16;56.618462;46.145668;73.021072;;
79288;Laerm;68737;53.946;27.634;2024-03-29T07:54:46;57.957130;46.799179;71.962402;;
79288;Laerm;68737;53.946;27.634;2024-03-29T07:57:16;56.046219;45.502357;73.651550;;
79288;Laerm;68737;53.946;27.634;2024-03-29T07:59:46;55.971527;46.671371;65.234467;;
79288;Laerm;68737;53.946;27.634;2024-03-29T08:02:16;54.751915;46.883492;61.878853;;
79288;Laerm;68737;53.946;27.634;2024-03-29T08:04:46;55.298256;45.489624;63.915493;;
79288;Laerm;68737;53.946;27.634;2024-03-29T08:07:16;56.664604;46.468117;78.830963;;
79288;Laerm;68737;53.946;27.634;2024-03-29T08:09:46;54.549194;46.055435;64.717064;;
79288;Laerm;68737;53.946;27.634;2024-03-29T08:12:16;54.274292;45.007057;62.314064;;
79288;Laerm;68737;53.946;27.634;2024-03-29T08:14:46;55.012337;46.949684;63.990822;;
79288;Laerm;68737;53.946;27.634;2024-03-29T08:17:16;54.424553;45.671852;64.730949;;
79288;Laerm;68737;53.946;27.634;2024-03-29T08:19:46;56.282898;46.160324;65.550293;;
79288;Laerm;68737;53.946;27.634;2024-03-29T08:22:16;55.537201;46.318642;62.271118;;
79288;Laerm;68737;53.946;27.634;2024-03-29T08:24:46;56.441231;46.666985;66.605576;;
79288;Laerm;68737;53.946;27.634;2024-03-29T08:27:16;56.300072;46.170250;65.781082;;
79288;Laerm;68737;53.946;27.634;2024-03-29T08:29:46;57.900917;46.154243;68.518517;;
79288;Laerm;68737;53.946;27.634;2024-03-29T08:32:16;56.177460;45.534904;64.455261;;
79288;Laerm;68737;53.946;27.634;2024-03-29T08:34:46;54.303864;45.586411;64.487839;;
79288;Laerm;68737;53.946;27.634;2024-03-29T08:37:16;56.529846;48.671165;67.699799;;
79288;Laerm;68737;53.946;27.634;2024-03-29T08:39:46;57.380028;46.524620;65.287117;;
79288;Laerm;68737;53.946;27.634;2024-03-29T08:42:16;57.099609;47.717987;66.469933;;
79288;Laerm;68737;53.946;27.634;2024-03-29T08:44:46;56.247589;45.103119;68.453529;;
79288;Laerm;68737;53.946;27.634;2024-03-29T08:47:16;56.844444;47.307785;64.773102;;
79288;Laerm;68737;53.946;27.634;2024-03-29T08:49:46;56.212112;45.521889;63.472359;;
79288;Laerm;68737;53.946;27.634;2024-03-29T08:52:16;55.501442;47.251190;63.072067;;
79288;Laerm;68737;53.946;27.634;2024-03-29T08:54:46;55.107109;47.213326;61.494457;;
79288;Laerm;68737;53.946;27.634;2024-03-29T08:57:16;56.826340;46.173004;69.490753;;
79288;Laerm;68737;53.946;27.634;2024-03-29T08:59:46;56.017891;46.321976;70.528893;;
79288;Laerm;68737;53.946;27.634;2024-03-29T09:02:16;57.675987;49.597328;70.639847;;
79288;Laerm;68737;53.946;27.634;2024-03-29T09:04:46;56.230377;45.362801;65.277168;;
79288;Laerm;68737;53.946;27.634;2024-03-29T09:07:16;57.462341;47.863510;71.736404;;
79288;Laerm;68737;53.946;27.634;2024-03-29T09:09:46;55.347763;47.603790;65.116623;;
79288;Laerm;68737;53.946;27.634;2024-03-29T09:12:16;56.116508;45.548149;68.260620;;
79288;Laerm;68737;53.946;27.634;2024-03-29T09:14:46;58.499939;45.743217;70.761635;;
79288;Laerm;68737;53.946;27.634;2024-03-29T09:17:16;56.475731;44.949081;69.672058;;
79288;Laerm;68737;53.946;27.634;2024-03-29T09:19:46;57.844421;47.529846;67.931023;;
79288;Laerm;68737;53.946;27.634;2024-03-29T09:22:16;56.074593;47.289505;69.075432;;
79288;Laerm;68737;53.946;27.634;2024-03-29T09:24:46;55.825661;46.478561;66.159012;;
79288;Laerm;68737;53.946;27.634;2024-03-29T09:27:16;57.258392;46.063919;65.806831;;
79288;Laerm;68737;53.946;27.634;2024-03-29T09:32:16;54.536140;44.248642;70.829010;;
79288;Laerm;68737;53.946;27.634;2024-03-29T09:34:46;55.922867;47.981529;65.630325;;
79288;Laerm;68737;53.946;27.634;2024-03-29T09:37:16;55.282410;45.377525;64.379990;;
79288;Laerm;68737;53.946;27.634;2024-03-29T09:39:46;56.661781;44.249802;65.070404;;
79288;Laerm;68737;53.946;27.634;2024-03-29T09:42:16;57.112022;45.203232;69.952377;;
79288;Laerm;68737;53.946;27.634;2024-03-29T09:44:46;54.175117;43.686775;63.216713;;
79288;Laerm;68737;53.946;27.634;2024-03-29T09:47:17;56.122055;43.912842;67.906242;;
79288;Laerm;68737;53.946;27.634;2024-03-29T09:49:46;55.551186;43.824509;63.917477;;
79288;Laerm;68737;53.946;27.634;2024-03-29T09:52:16;58.082832;48.118416;66.220947;;
79288;Laerm;68737;53.946;27.634;2024-03-29T09:54:46;55.495232;46.497902;70.772392;;
79288;Laerm;68737;53.946;27.634;2024-03-29T09:57:16;57.095390;44.318504;69.980896;;
79288;Laerm;68737;53.946;27.634;2024-03-29T09:59:46;59.197739;44.543922;80.791519;;
79288;Laerm;68737;53.946;27.634;2024-03-29T10:02:16;55.232391;47.046783;63.540215;;
79288;Laerm;68737;53.946;27.634;2024-03-29T10:04:46;56.193199;44.236259;68.488647;;
79288;Laerm;68737;53.946;27.634;2024-03-29T10:07:16;56.237671;45.538773;64.029800;;
79288;Laerm;68737;53.946;27.634;2024-03-29T10:09:46;55.774315;44.642426;64.321823;;
79288;Laerm;68737;53.946;27.634;2024-03-29T10:12:16;54.670609;44.587082;66.100021;;
79288;Laerm;68737;53.946;27.634;2024-03-29T10:14:46;54.699921;45.058395;77.405823;;
79288;Laerm;68737;53.946;27.634;2024-03-29T10:17:16;56.106316;47.971680;70.699806;;
79288;Laerm;68737;53.946;27.634;2024-03-29T10:19:46;58.297684;45.762329;71.073013;;
79288;Laerm;68737;53.946;27.634;2024-03-29T10:22:16;54.875656;44.997368;65.402878;;
79288;Laerm;68737;53.946;27.634;2024-03-29T10:24:46;54.617714;44.539330;65.111526;;
79288;Laerm;68737;53.946;27.634;2024-03-29T10:27:16;54.931458;44.010231;72.509567;;
79288;Laerm;68737;53.946;27.634;2024-03-29T10:29:46;55.666176;48.200356;67.912498;;
79288;Laerm;68737;53.946;27.634;2024-03-29T10:32:16;56.560844;46.107292;66.090439;;
79288;Laerm;68737;53.946;27.634;2024-03-29T10:34:48;54.623398;46.732277;67.724808;;
79288;Laerm;68737;53.946;27.634;2024-03-29T10:37:16;58.307648;45.078270;76.408813;;
79288;Laerm;68737;53.946;27.634;2024-03-29T10:39:46;54.925224;44.427856;65.330139;;
79288;Laerm;68737;53.946;27.634;2024-03-29T10:42:16;57.417625;46.245094;67.624939;;
79288;Laerm;68737;53.946;27.634;2024-03-29T10:44:47;56.608612;45.884277;80.436897;;
79288;Laerm;68737;53.946;27.634;2024-03-29T10:47:20;55.104958;46.416298;63.113411;;
79288;Laerm;68737;53.946;27.634;2024-03-29T10:54:47;55.421867;45.601936;68.925209;;
79288;Laerm;68737;53.946;27.634;2024-03-29T11:04:46;57.007462;45.495163;70.012527;;
79288;Laerm;68737;53.946;27.634;2024-03-29T11:07:19;57.264732;47.332504;68.057465;;
79288;Laerm;68737;53.946;27.634;2024-03-29T11:09:46;54.590904;43.959366;63.084137;;
79288;Laerm;68737;53.946;27.634;2024-03-29T11:12:16;60.569145;45.968430;86.223602;;
79288;Laerm;68737;53.946;27.634;2024-03-29T11:14:46;57.139244;45.770203;64.930984;;
79288;Laerm;68737;53.946;27.634;2024-03-29T11:17:16;53.531639;45.852531;70.050316;;
79288;Laerm;68737;53.946;27.634;2024-03-29T11:19:46;55.684204;45.927101;73.250130;;
79288;Laerm;68737;53.946;27.634;2024-03-29T11:22:16;54.731880;45.896675;63.442333;;
79288;Laerm;68737;53.946;27.634;2024-03-29T11:24:46;56.975151;47.326561;66.303505;;
79288;Laerm;68737;53.946;27.634;2024-03-29T11:27:16;56.252319;48.843414;67.261925;;
79288;Laerm;68737;53.946;27.634;2024-03-29T11:29:46;55.104477;44.846863;65.202698;;
79288;Laerm;68737;53.946;27.634;2024-03-29T11:32:33;56.113441;46.205116;66.540039;;
79288;Laerm;68737;53.946;27.634;2024-03-29T11:34:46;54.142334;45.824997;62.851463;;
79288;Laerm;68737;53.946;27.634;2024-03-29T11:37:16;56.850029;45.604630;64.665291;;
79288;Laerm;68737;53.946;27.634;2024-03-29T11:42:16;58.125267;45.560791;69.845047;;
79288;Laerm;68737;53.946;27.634;2024-03-29T11:44:46;54.947083;44.665451;66.214897;;
79288;Laerm;68737;53.946;27.634;2024-03-29T11:47:16;53.664284;44.215454;61.125267;;
79288;Laerm;68737;53.946;27.634;2024-03-29T11:49:54;55.510902;46.263710;62.139343;;
79288;Laerm;68737;53.946;27.634;2024-03-29T11:52:17;56.093376;46.019531;66.724892;;
79288;Laerm;68737;53.946;27.634;2024-03-29T11:54:46;56.572197;46.468964;67.029800;;
79288;Laerm;68737;53.946;27.634;2024-03-29T11:57:16;57.449760;48.705002;67.597588;;
79288;Laerm;68737;53.946;27.634;2024-03-29T11:59:46;58.147194;48.494568;75.586075;;
79288;Laerm;68737;53.946;27.634;2024-03-29T12:02:16;57.480560;47.216309;75.855392;;
79288;Laerm;68737;53.946;27.634;2024-03-29T12:04:46;56.222519;48.073914;65.373802;;
79288;Laerm;68737;53.946;27.634;2024-03-29T12:07:16;56.502655;48.322273;64.231857;;
79288;Laerm;68737;53.946;27.634;2024-03-29T12:09:46;56.845772;47.733841;65.269165;;
79288;Laerm;68737;53.946;27.634;2024-03-29T12:12:16;57.853989;47.094383;68.139557;;